sensor_id;sensor_type;location;lat;lon;timestamp;P1;durP1;ratioP1;P2;durP2;ratioP2
13868;SDS011;7004;48.206;16.402;2023-12-07T00:01:11;30.37;;;18.93;;
13868;SDS011;7004;48.206;16.402;2023-12-07T00:03:38;23.17;;;16.27;;
13868;SDS011;7004;48.206;16.402;2023-12-07T00:06:07;25.53;;;18.80;;
13868;SDS011;7004;48.206;16.402;2023-12-07T00:08:34;26.43;;;17.63;;
13868;SDS011;7004;48.206;16.402;2023-12-07T00:11:00;24.47;;;16.70;;
13868;SDS011;7004;48.206;16.402;2023-12-07T00:13:26;24.00;;;17.20;;
13868;SDS011;7004;48.206;16.402;2023-12-07T00:15:54;24.00;;;17.43;;
13868;SDS011;7004;48.206;16.402;2023-12-07T00:18:21;23.17;;;16.23;;
13868;SDS011;7004;48.206;16.402;2023-12-07T00:20:47;25.70;;;17.20;;
13868;SDS011;7004;48.206;16.402;2023-12-07T00:23:20;22.27;;;16.10;;
13868;SDS011;7004;48.206;16.402;2023-12-07T00:25:46;24.27;;;16.77;;
13868;SDS011;7004;48.206;16.402;2023-12-07T00:28:13;24.63;;;16.63;;
13868;SDS011;7004;48.206;16.402;2023-12-07T00:30:40;22.53;;;16.27;;
13868;SDS011;7004;48.206;16.402;2023-12-07T00:33:07;21.40;;;15.97;;
13868;SDS011;7004;48.206;16.402;2023-12-07T00:35:34;21.63;;;15.77;;
13868;SDS011;7004;48.206;16.402;2023-12-07T00:38:02;19.77;;;14.93;;
13868;SDS011;7004;48.206;16.402;2023-12-07T00:40:29;22.87;;;16.60;;
13868;SDS011;7004;48.206;16.402;2023-12-07T00:42:55;20.07;;;15.03;;
13868;SDS011;7004;48.206;16.402;2023-12-07T00:45:22;19.80;;;14.63;;
13868;SDS011;7004;48.206;16.402;2023-12-07T00:47:50;20.20;;;14.93;;
13868;SDS011;7004;48.206;16.402;2023-12-07T00:50:16;21.87;;;15.87;;
13868;SDS011;7004;48.206;16.402;2023-12-07T00:52:43;21.07;;;15.33;;
13868;SDS011;7004;48.206;16.402;2023-12-07T00:55:09;21.07;;;15.13;;
13868;SDS011;7004;48.206;16.402;2023-12-07T00:57:36;19.77;;;14.90;;
13868;SDS011;7004;48.206;16.402;2023-12-07T01:00:02;22.27;;;15.50;;
13868;SDS011;7004;48.206;16.402;2023-12-07T01:02:40;19.40;;;14.40;;
13868;SDS011;7004;48.206;16.402;2023-12-07T01:05:07;21.00;;;15.17;;
13868;SDS011;7004;48.206;16.402;2023-12-07T01:07:34;20.80;;;15.33;;
13868;SDS011;7004;48.206;16.402;2023-12-07T01:10:00;22.27;;;15.80;;
13868;SDS011;7004;48.206;16.402;2023-12-07T01:12:27;19.43;;;14.30;;
13868;SDS011;7004;48.206;16.402;2023-12-07T01:14:54;20.63;;;14.43;;
13868;SDS011;7004;48.206;16.402;2023-12-07T01:17:20;19.23;;;14.10;;
13868;SDS011;7004;48.206;16.402;2023-12-07T01:19:46;20.20;;;14.50;;
13868;SDS011;7004;48.206;16.402;2023-12-07T01:22:13;20.87;;;14.37;;
13868;SDS011;7004;48.206;16.402;2023-12-07T01:24:39;18.90;;;13.97;;
13868;SDS011;7004;48.206;16.402;2023-12-07T01:27:05;19.47;;;14.30;;
13868;SDS011;7004;48.206;16.402;2023-12-07T01:29:31;18.87;;;13.53;;
13868;SDS011;7004;48.206;16.402;2023-12-07T01:31:58;18.90;;;14.50;;
13868;SDS011;7004;48.206;16.402;2023-12-07T01:34:24;19.67;;;14.80;;
13868;SDS011;7004;48.206;16.402;2023-12-07T01:36:50;18.00;;;14.00;;
13868;SDS011;7004;48.206;16.402;2023-12-07T01:39:16;22.47;;;14.73;;
13868;SDS011;7004;48.206;16.402;2023-12-07T01:41:43;20.03;;;13.57;;
13868;SDS011;7004;48.206;16.402;2023-12-07T01:44:09;19.03;;;14.57;;
13868;SDS011;7004;48.206;16.402;2023-12-07T01:46:35;18.20;;;13.60;;
13868;SDS011;7004;48.206;16.402;2023-12-07T01:49:02;19.23;;;13.93;;
13868;SDS011;7004;48.206;16.402;2023-12-07T01:51:30;17.80;;;13.30;;
13868;SDS011;7004;48.206;16.402;2023-12-07T01:53:58;18.37;;;13.03;;
13868;SDS011;7004;48.206;16.402;2023-12-07T01:56:25;18.23;;;13.73;;
13868;SDS011;7004;48.206;16.402;2023-12-07T01:58:52;18.80;;;13.70;;
13868;SDS011;7004;48.206;16.402;2023-12-07T02:01:19;18.97;;;12.53;;
13868;SDS011;7004;48.206;16.402;2023-12-07T02:03:45;17.93;;;13.20;;
13868;SDS011;7004;48.206;16.402;2023-12-07T02:06:11;17.60;;;12.83;;
13868;SDS011;7004;48.206;16.402;2023-12-07T02:08:39;18.47;;;12.33;;
13868;SDS011;7004;48.206;16.402;2023-12-07T02:11:08;16.80;;;12.47;;
13868;SDS011;7004;48.206;16.402;2023-12-07T02:13:39;16.63;;;12.03;;
13868;SDS011;7004;48.206;16.402;2023-12-07T02:16:09;16.63;;;11.93;;
13868;SDS011;7004;48.206;16.402;2023-12-07T02:19:08;16.17;;;11.87;;
13868;SDS011;7004;48.206;16.402;2023-12-07T02:21:56;17.87;;;12.50;;
13868;SDS011;7004;48.206;16.402;2023-12-07T02:24:28;16.03;;;11.53;;
13868;SDS011;7004;48.206;16.402;2023-12-07T02:26:59;16.53;;;11.40;;
13868;SDS011;7004;48.206;16.402;2023-12-07T02:29:25;14.87;;;11.37;;
13868;SDS011;7004;48.206;16.402;2023-12-07T02:31:51;16.87;;;11.43;;
13868;SDS011;7004;48.206;16.402;2023-12-07T02:34:18;14.97;;;11.07;;
13868;SDS011;7004;48.206;16.402;2023-12-07T02:36:44;16.03;;;11.60;;
13868;SDS011;7004;48.206;16.402;2023-12-07T02:39:13;17.30;;;11.70;;
13868;SDS011;7004;48.206;16.402;2023-12-07T02:41:39;14.67;;;10.57;;
13868;SDS011;7004;48.206;16.402;2023-12-07T02:44:06;18.77;;;12.80;;
13868;SDS011;7004;48.206;16.402;2023-12-07T02:46:33;15.27;;;11.10;;
13868;SDS011;7004;48.206;16.402;2023-12-07T02:49:00;14.97;;;11.03;;
13868;SDS011;7004;48.206;16.402;2023-12-07T02:51:27;15.60;;;11.03;;
13868;SDS011;7004;48.206;16.402;2023-12-07T02:53:53;16.47;;;12.40;;
13868;SDS011;7004;48.206;16.402;2023-12-07T02:56:19;15.80;;;11.13;;
13868;SDS011;7004;48.206;16.402;2023-12-07T02:58:46;17.63;;;11.77;;
13868;SDS011;7004;48.206;16.402;2023-12-07T03:01:12;14.23;;;10.70;;
13868;SDS011;7004;48.206;16.402;2023-12-07T03:03:38;17.10;;;12.17;;
13868;SDS011;7004;48.206;16.402;2023-12-07T03:06:06;17.50;;;11.30;;
13868;SDS011;7004;48.206;16.402;2023-12-07T03:08:32;14.80;;;10.53;;
13868;SDS011;7004;48.206;16.402;2023-12-07T03:10:58;14.43;;;10.57;;
13868;SDS011;7004;48.206;16.402;2023-12-07T03:13:28;16.60;;;11.53;;
13868;SDS011;7004;48.206;16.402;2023-12-07T03:15:54;13.50;;;10.63;;
13868;SDS011;7004;48.206;16.402;2023-12-07T03:18:29;16.47;;;11.10;;
13868;SDS011;7004;48.206;16.402;2023-12-07T03:20:55;15.57;;;11.60;;
13868;SDS011;7004;48.206;16.402;2023-12-07T03:23:22;15.30;;;10.87;;
13868;SDS011;7004;48.206;16.402;2023-12-07T03:25:51;14.87;;;11.43;;
13868;SDS011;7004;48.206;16.402;2023-12-07T03:28:18;13.80;;;11.00;;
13868;SDS011;7004;48.206;16.402;2023-12-07T03:30:57;15.00;;;10.87;;
13868;SDS011;7004;48.206;16.402;2023-12-07T03:33:24;14.40;;;11.27;;
13868;SDS011;7004;48.206;16.402;2023-12-07T03:35:50;14.77;;;11.00;;
13868;SDS011;7004;48.206;16.402;2023-12-07T03:38:17;14.43;;;10.80;;
13868;SDS011;7004;48.206;16.402;2023-12-07T03:40:47;14.00;;;9.83;;
13868;SDS011;7004;48.206;16.402;2023-12-07T03:43:18;13.63;;;9.93;;
13868;SDS011;7004;48.206;16.402;2023-12-07T03:45:47;15.60;;;10.33;;
13868;SDS011;7004;48.206;16.402;2023-12-07T03:48:13;14.53;;;9.87;;
13868;SDS011;7004;48.206;16.402;2023-12-07T03:50:39;13.73;;;10.50;;
13868;SDS011;7004;48.206;16.402;2023-12-07T03:53:05;13.47;;;10.17;;
13868;SDS011;7004;48.206;16.402;2023-12-07T03:55:33;12.43;;;9.37;;
13868;SDS011;7004;48.206;16.402;2023-12-07T03:57:59;12.97;;;10.03;;
13868;SDS011;7004;48.206;16.402;2023-12-07T04:00:25;12.73;;;9.53;;
13868;SDS011;7004;48.206;16.402;2023-12-07T04:02:52;12.27;;;9.27;;
13868;SDS011;7004;48.206;16.402;2023-12-07T04:05:20;11.33;;;8.80;;
13868;SDS011;7004;48.206;16.402;2023-12-07T04:07:47;13.67;;;9.87;;
13868;SDS011;7004;48.206;16.402;2023-12-07T04:10:13;13.07;;;9.60;;
13868;SDS011;7004;48.206;16.402;2023-12-07T04:12:41;13.60;;;8.37;;
13868;SDS011;7004;48.206;16.402;2023-12-07T04:15:08;12.97;;;9.03;;
13868;SDS011;7004;48.206;16.402;2023-12-07T04:17:34;12.10;;;9.03;;
13868;SDS011;7004;48.206;16.402;2023-12-07T04:20:00;12.70;;;9.30;;
13868;SDS011;7004;48.206;16.402;2023-12-07T04:22:27;11.77;;;9.23;;
13868;SDS011;7004;48.206;16.402;2023-12-07T04:24:54;13.33;;;9.80;;
13868;SDS011;7004;48.206;16.402;2023-12-07T04:27:20;12.97;;;9.57;;
13868;SDS011;7004;48.206;16.402;2023-12-07T04:29:46;12.80;;;9.53;;
13868;SDS011;7004;48.206;16.402;2023-12-07T04:32:13;13.17;;;9.87;;
13868;SDS011;7004;48.206;16.402;2023-12-07T04:34:39;13.73;;;9.60;;
13868;SDS011;7004;48.206;16.402;2023-12-07T04:37:05;12.73;;;9.03;;
13868;SDS011;7004;48.206;16.402;2023-12-07T04:39:32;13.17;;;9.83;;
13868;SDS011;7004;48.206;16.402;2023-12-07T04:41:59;11.30;;;8.93;;
13868;SDS011;7004;48.206;16.402;2023-12-07T04:44:26;14.27;;;9.53;;
13868;SDS011;7004;48.206;16.402;2023-12-07T04:46:52;12.67;;;9.17;;
13868;SDS011;7004;48.206;16.402;2023-12-07T04:49:19;13.30;;;9.67;;
13868;SDS011;7004;48.206;16.402;2023-12-07T04:51:46;12.00;;;8.80;;
13868;SDS011;7004;48.206;16.402;2023-12-07T04:54:12;10.83;;;8.77;;
13868;SDS011;7004;48.206;16.402;2023-12-07T04:56:41;13.13;;;8.90;;
13868;SDS011;7004;48.206;16.402;2023-12-07T04:59:11;12.90;;;9.87;;
13868;SDS011;7004;48.206;16.402;2023-12-07T05:01:38;10.60;;;8.67;;
13868;SDS011;7004;48.206;16.402;2023-12-07T05:04:05;12.10;;;9.30;;
13868;SDS011;7004;48.206;16.402;2023-12-07T05:06:31;14.03;;;10.17;;
13868;SDS011;7004;48.206;16.402;2023-12-07T05:08:58;13.00;;;10.03;;
13868;SDS011;7004;48.206;16.402;2023-12-07T05:11:24;11.97;;;9.03;;
13868;SDS011;7004;48.206;16.402;2023-12-07T05:13:50;13.13;;;9.57;;
13868;SDS011;7004;48.206;16.402;2023-12-07T05:16:17;11.67;;;9.43;;
13868;SDS011;7004;48.206;16.402;2023-12-07T05:18:47;12.77;;;8.90;;
13868;SDS011;7004;48.206;16.402;2023-12-07T05:21:14;12.83;;;9.33;;
13868;SDS011;7004;48.206;16.402;2023-12-07T05:23:40;11.80;;;9.00;;
13868;SDS011;7004;48.206;16.402;2023-12-07T05:26:06;11.80;;;9.00;;
13868;SDS011;7004;48.206;16.402;2023-12-07T05:28:33;10.67;;;8.80;;
13868;SDS011;7004;48.206;16.402;2023-12-07T05:31:02;13.53;;;9.50;;
13868;SDS011;7004;48.206;16.402;2023-12-07T05:33:29;11.30;;;8.73;;
13868;SDS011;7004;48.206;16.402;2023-12-07T05:35:55;11.63;;;8.80;;
13868;SDS011;7004;48.206;16.402;2023-12-07T05:38:21;13.33;;;8.97;;
13868;SDS011;7004;48.206;16.402;2023-12-07T05:40:47;10.93;;;8.70;;
13868;SDS011;7004;48.206;16.402;2023-12-07T05:43:14;12.80;;;9.10;;
13868;SDS011;7004;48.206;16.402;2023-12-07T05:45:41;10.93;;;8.20;;
13868;SDS011;7004;48.206;16.402;2023-12-07T05:48:07;12.07;;;8.87;;
13868;SDS011;7004;48.206;16.402;2023-12-07T05:50:34;12.97;;;9.20;;
13868;SDS011;7004;48.206;16.402;2023-12-07T05:53:00;11.63;;;8.53;;
13868;SDS011;7004;48.206;16.402;2023-12-07T05:55:26;11.90;;;8.47;;
13868;SDS011;7004;48.206;16.402;2023-12-07T05:57:52;10.57;;;8.53;;
13868;SDS011;7004;48.206;16.402;2023-12-07T06:00:19;11.80;;;8.70;;
13868;SDS011;7004;48.206;16.402;2023-12-07T06:02:45;11.07;;;9.07;;
13868;SDS011;7004;48.206;16.402;2023-12-07T06:05:11;10.03;;;8.37;;
13868;SDS011;7004;48.206;16.402;2023-12-07T06:07:37;11.30;;;8.53;;
13868;SDS011;7004;48.206;16.402;2023-12-07T06:10:04;12.40;;;8.80;;
13868;SDS011;7004;48.206;16.402;2023-12-07T06:12:30;12.03;;;9.80;;
13868;SDS011;7004;48.206;16.402;2023-12-07T06:14:56;13.47;;;10.27;;
13868;SDS011;7004;48.206;16.402;2023-12-07T06:17:23;13.63;;;10.10;;
13868;SDS011;7004;48.206;16.402;2023-12-07T06:19:49;13.53;;;9.87;;
13868;SDS011;7004;48.206;16.402;2023-12-07T06:22:15;15.57;;;11.17;;
13868;SDS011;7004;48.206;16.402;2023-12-07T06:24:41;15.30;;;10.77;;
13868;SDS011;7004;48.206;16.402;2023-12-07T06:27:07;14.57;;;10.07;;
13868;SDS011;7004;48.206;16.402;2023-12-07T06:29:35;14.57;;;11.27;;
13868;SDS011;7004;48.206;16.402;2023-12-07T06:32:01;15.17;;;10.97;;
13868;SDS011;7004;48.206;16.402;2023-12-07T06:34:27;14.83;;;10.60;;
13868;SDS011;7004;48.206;16.402;2023-12-07T06:36:53;15.83;;;11.27;;
13868;SDS011;7004;48.206;16.402;2023-12-07T06:39:19;16.17;;;11.50;;
13868;SDS011;7004;48.206;16.402;2023-12-07T06:41:45;16.17;;;11.07;;
13868;SDS011;7004;48.206;16.402;2023-12-07T06:44:11;15.27;;;11.17;;
13868;SDS011;7004;48.206;16.402;2023-12-07T06:46:37;16.43;;;11.93;;
13868;SDS011;7004;48.206;16.402;2023-12-07T06:49:04;15.37;;;11.60;;
13868;SDS011;7004;48.206;16.402;2023-12-07T06:51:30;16.60;;;11.43;;
13868;SDS011;7004;48.206;16.402;2023-12-07T06:53:57;15.73;;;11.30;;
13868;SDS011;7004;48.206;16.402;2023-12-07T06:56:23;17.63;;;12.07;;
13868;SDS011;7004;48.206;16.402;2023-12-07T06:58:50;16.13;;;10.47;;
13868;SDS011;7004;48.206;16.402;2023-12-07T07:01:16;17.13;;;11.57;;
13868;SDS011;7004;48.206;16.402;2023-12-07T07:03:42;15.80;;;10.87;;
13868;SDS011;7004;48.206;16.402;2023-12-07T07:06:08;15.13;;;10.40;;
13868;SDS011;7004;48.206;16.402;2023-12-07T07:08:34;16.00;;;11.23;;
13868;SDS011;7004;48.206;16.402;2023-12-07T07:11:00;12.77;;;9.27;;
13868;SDS011;7004;48.206;16.402;2023-12-07T07:13:26;14.03;;;9.57;;
13868;SDS011;7004;48.206;16.402;2023-12-07T07:15:53;13.93;;;9.93;;
13868;SDS011;7004;48.206;16.402;2023-12-07T07:18:20;13.90;;;10.10;;
13868;SDS011;7004;48.206;16.402;2023-12-07T07:20:51;12.40;;;9.20;;
13868;SDS011;7004;48.206;16.402;2023-12-07T07:23:17;13.10;;;9.90;;
13868;SDS011;7004;48.206;16.402;2023-12-07T07:25:44;13.50;;;9.27;;
13868;SDS011;7004;48.206;16.402;2023-12-07T07:28:10;13.50;;;9.90;;
13868;SDS011;7004;48.206;16.402;2023-12-07T07:30:36;12.03;;;9.50;;
13868;SDS011;7004;48.206;16.402;2023-12-07T07:33:03;13.13;;;8.87;;
13868;SDS011;7004;48.206;16.402;2023-12-07T07:35:31;15.23;;;10.17;;
13868;SDS011;7004;48.206;16.402;2023-12-07T07:37:57;12.07;;;9.53;;
13868;SDS011;7004;48.206;16.402;2023-12-07T07:40:23;13.83;;;9.63;;
13868;SDS011;7004;48.206;16.402;2023-12-07T07:42:50;11.83;;;9.37;;
13868;SDS011;7004;48.206;16.402;2023-12-07T07:45:16;12.87;;;8.87;;
13868;SDS011;7004;48.206;16.402;2023-12-07T07:47:42;12.70;;;9.20;;
13868;SDS011;7004;48.206;16.402;2023-12-07T07:50:08;13.07;;;9.80;;
13868;SDS011;7004;48.206;16.402;2023-12-07T07:52:36;12.73;;;9.77;;
13868;SDS011;7004;48.206;16.402;2023-12-07T07:55:05;14.90;;;10.23;;
13868;SDS011;7004;48.206;16.402;2023-12-07T07:57:32;13.17;;;9.03;;
13868;SDS011;7004;48.206;16.402;2023-12-07T07:59:58;14.17;;;10.53;;
13868;SDS011;7004;48.206;16.402;2023-12-07T08:02:24;14.80;;;10.87;;
13868;SDS011;7004;48.206;16.402;2023-12-07T08:04:51;13.87;;;10.60;;
13868;SDS011;7004;48.206;16.402;2023-12-07T08:07:17;14.17;;;10.77;;
13868;SDS011;7004;48.206;16.402;2023-12-07T08:09:43;14.17;;;10.93;;
13868;SDS011;7004;48.206;16.402;2023-12-07T08:12:10;16.73;;;11.90;;
13868;SDS011;7004;48.206;16.402;2023-12-07T08:14:36;15.40;;;11.10;;
13868;SDS011;7004;48.206;16.402;2023-12-07T08:17:03;14.17;;;10.77;;
13868;SDS011;7004;48.206;16.402;2023-12-07T08:19:29;17.63;;;11.47;;
13868;SDS011;7004;48.206;16.402;2023-12-07T08:21:55;16.40;;;11.37;;
13868;SDS011;7004;48.206;16.402;2023-12-07T08:24:22;14.70;;;10.83;;
13868;SDS011;7004;48.206;16.402;2023-12-07T08:26:48;16.83;;;11.13;;
13868;SDS011;7004;48.206;16.402;2023-12-07T08:29:14;14.80;;;10.83;;
13868;SDS011;7004;48.206;16.402;2023-12-07T08:31:40;18.20;;;11.77;;
13868;SDS011;7004;48.206;16.402;2023-12-07T08:34:06;16.60;;;11.47;;
13868;SDS011;7004;48.206;16.402;2023-12-07T08:36:32;17.47;;;11.93;;
13868;SDS011;7004;48.206;16.402;2023-12-07T08:38:59;17.07;;;12.47;;
13868;SDS011;7004;48.206;16.402;2023-12-07T08:41:24;17.00;;;12.03;;
13868;SDS011;7004;48.206;16.402;2023-12-07T08:43:50;18.27;;;12.83;;
13868;SDS011;7004;48.206;16.402;2023-12-07T08:46:16;15.00;;;11.53;;
13868;SDS011;7004;48.206;16.402;2023-12-07T08:48:43;16.50;;;12.10;;
13868;SDS011;7004;48.206;16.402;2023-12-07T08:51:09;14.33;;;10.93;;
13868;SDS011;7004;48.206;16.402;2023-12-07T08:53:35;18.40;;;12.00;;
13868;SDS011;7004;48.206;16.402;2023-12-07T08:56:03;15.13;;;10.77;;
13868;SDS011;7004;48.206;16.402;2023-12-07T08:58:30;14.80;;;11.17;;
13868;SDS011;7004;48.206;16.402;2023-12-07T09:00:56;16.03;;;10.93;;
13868;SDS011;7004;48.206;16.402;2023-12-07T09:03:22;15.03;;;10.83;;
13868;SDS011;7004;48.206;16.402;2023-12-07T09:05:53;16.77;;;11.87;;
13868;SDS011;7004;48.206;16.402;2023-12-07T09:08:19;13.13;;;10.17;;
13868;SDS011;7004;48.206;16.402;2023-12-07T09:10:45;17.03;;;10.83;;
13868;SDS011;7004;48.206;16.402;2023-12-07T09:13:12;14.80;;;11.27;;
13868;SDS011;7004;48.206;16.402;2023-12-07T09:15:38;15.20;;;10.87;;
13868;SDS011;7004;48.206;16.402;2023-12-07T09:18:04;15.87;;;10.83;;
13868;SDS011;7004;48.206;16.402;2023-12-07T09:20:30;15.40;;;11.47;;
13868;SDS011;7004;48.206;16.402;2023-12-07T09:22:56;14.37;;;10.90;;
13868;SDS011;7004;48.206;16.402;2023-12-07T09:25:23;15.30;;;11.50;;
13868;SDS011;7004;48.206;16.402;2023-12-07T09:27:49;14.67;;;11.30;;
13868;SDS011;7004;48.206;16.402;2023-12-07T09:30:16;15.67;;;11.37;;
13868;SDS011;7004;48.206;16.402;2023-12-07T09:32:42;13.90;;;11.30;;
13868;SDS011;7004;48.206;16.402;2023-12-07T09:35:09;15.70;;;10.17;;
13868;SDS011;7004;48.206;16.402;2023-12-07T09:37:45;15.70;;;11.13;;
13868;SDS011;7004;48.206;16.402;2023-12-07T09:40:15;15.20;;;11.53;;
13868;SDS011;7004;48.206;16.402;2023-12-07T09:42:46;14.57;;;11.23;;
13868;SDS011;7004;48.206;16.402;2023-12-07T09:45:13;14.50;;;10.60;;
13868;SDS011;7004;48.206;16.402;2023-12-07T09:47:42;13.33;;;11.30;;
13868;SDS011;7004;48.206;16.402;2023-12-07T09:50:09;14.80;;;10.10;;
13868;SDS011;7004;48.206;16.402;2023-12-07T09:52:35;14.17;;;10.90;;
13868;SDS011;7004;48.206;16.402;2023-12-07T09:55:02;14.80;;;10.13;;
13868;SDS011;7004;48.206;16.402;2023-12-07T09:57:29;14.53;;;11.27;;
13868;SDS011;7004;48.206;16.402;2023-12-07T09:59:56;14.40;;;10.30;;
13868;SDS011;7004;48.206;16.402;2023-12-07T10:02:23;10.53;;;8.57;;
13868;SDS011;7004;48.206;16.402;2023-12-07T10:05:03;13.73;;;9.80;;
13868;SDS011;7004;48.206;16.402;2023-12-07T10:07:53;12.40;;;9.63;;
13868;SDS011;7004;48.206;16.402;2023-12-07T10:10:19;11.33;;;9.17;;
13868;SDS011;7004;48.206;16.402;2023-12-07T10:12:52;11.13;;;8.23;;
13868;SDS011;7004;48.206;16.402;2023-12-07T10:15:24;11.20;;;8.60;;
13868;SDS011;7004;48.206;16.402;2023-12-07T10:17:52;11.13;;;9.23;;
13868;SDS011;7004;48.206;16.402;2023-12-07T10:20:27;13.37;;;9.07;;
13868;SDS011;7004;48.206;16.402;2023-12-07T10:23:01;12.03;;;9.63;;
13868;SDS011;7004;48.206;16.402;2023-12-07T10:25:35;11.73;;;9.10;;
13868;SDS011;7004;48.206;16.402;2023-12-07T10:28:07;12.37;;;9.43;;
13868;SDS011;7004;48.206;16.402;2023-12-07T10:30:39;12.40;;;9.00;;
13868;SDS011;7004;48.206;16.402;2023-12-07T10:33:07;16.47;;;10.03;;
13868;SDS011;7004;48.206;16.402;2023-12-07T10:35:35;11.27;;;9.13;;
13868;SDS011;7004;48.206;16.402;2023-12-07T10:38:08;12.53;;;9.67;;
13868;SDS011;7004;48.206;16.402;2023-12-07T10:40:35;12.43;;;9.40;;
13868;SDS011;7004;48.206;16.402;2023-12-07T10:43:03;13.60;;;10.20;;
13868;SDS011;7004;48.206;16.402;2023-12-07T10:45:32;13.67;;;9.20;;
13868;SDS011;7004;48.206;16.402;2023-12-07T10:48:03;13.67;;;9.33;;
13868;SDS011;7004;48.206;16.402;2023-12-07T10:50:34;11.70;;;9.10;;
13868;SDS011;7004;48.206;16.402;2023-12-07T10:53:09;12.70;;;9.63;;
13868;SDS011;7004;48.206;16.402;2023-12-07T10:55:53;13.07;;;8.73;;
13868;SDS011;7004;48.206;16.402;2023-12-07T10:58:25;13.37;;;9.37;;
13868;SDS011;7004;48.206;16.402;2023-12-07T11:00:52;12.20;;;9.33;;
13868;SDS011;7004;48.206;16.402;2023-12-07T11:03:18;12.90;;;10.37;;
13868;SDS011;7004;48.206;16.402;2023-12-07T11:05:48;13.27;;;9.27;;
13868;SDS011;7004;48.206;16.402;2023-12-07T11:08:38;13.57;;;10.03;;
13868;SDS011;7004;48.206;16.402;2023-12-07T11:11:31;13.27;;;9.77;;
13868;SDS011;7004;48.206;16.402;2023-12-07T11:14:21;17.00;;;10.33;;
13868;SDS011;7004;48.206;16.402;2023-12-07T11:16:48;13.17;;;10.13;;
13868;SDS011;7004;48.206;16.402;2023-12-07T11:22:01;12.60;;;9.37;;
13868;SDS011;7004;48.206;16.402;2023-12-07T11:24:37;12.33;;;8.83;;
13868;SDS011;7004;48.206;16.402;2023-12-07T11:27:16;14.60;;;10.37;;
13868;SDS011;7004;48.206;16.402;2023-12-07T11:29:43;13.07;;;9.43;;
13868;SDS011;7004;48.206;16.402;2023-12-07T11:32:13;14.90;;;9.87;;
13868;SDS011;7004;48.206;16.402;2023-12-07T11:34:43;13.07;;;10.00;;
13868;SDS011;7004;48.206;16.402;2023-12-07T11:37:14;12.43;;;9.30;;
13868;SDS011;7004;48.206;16.402;2023-12-07T11:39:43;12.00;;;9.37;;
13868;SDS011;7004;48.206;16.402;2023-12-07T11:42:12;11.10;;;8.93;;
13868;SDS011;7004;48.206;16.402;2023-12-07T11:44:43;12.70;;;8.87;;
13868;SDS011;7004;48.206;16.402;2023-12-07T11:47:18;11.80;;;8.97;;
13868;SDS011;7004;48.206;16.402;2023-12-07T11:49:46;10.13;;;8.57;;
13868;SDS011;7004;48.206;16.402;2023-12-07T11:52:13;11.10;;;9.30;;
13868;SDS011;7004;48.206;16.402;2023-12-07T11:54:45;11.77;;;9.03;;
13868;SDS011;7004;48.206;16.402;2023-12-07T11:57:15;12.73;;;9.27;;
13868;SDS011;7004;48.206;16.402;2023-12-07T11:59:45;10.97;;;9.43;;
13868;SDS011;7004;48.206;16.402;2023-12-07T12:02:13;12.10;;;9.10;;
13868;SDS011;7004;48.206;16.402;2023-12-07T12:04:42;12.97;;;9.10;;
13868;SDS011;7004;48.206;16.402;2023-12-07T12:07:08;9.90;;;8.00;;
13868;SDS011;7004;48.206;16.402;2023-12-07T12:09:36;12.70;;;9.13;;
13868;SDS011;7004;48.206;16.402;2023-12-07T12:12:05;10.90;;;7.80;;
13868;SDS011;7004;48.206;16.402;2023-12-07T12:14:31;10.43;;;7.77;;
13868;SDS011;7004;48.206;16.402;2023-12-07T12:16:58;11.23;;;8.23;;
13868;SDS011;7004;48.206;16.402;2023-12-07T12:19:27;11.60;;;9.27;;
13868;SDS011;7004;48.206;16.402;2023-12-07T12:21:54;12.10;;;8.60;;
13868;SDS011;7004;48.206;16.402;2023-12-07T12:24:28;10.63;;;8.00;;
13868;SDS011;7004;48.206;16.402;2023-12-07T12:26:59;16.57;;;9.23;;
13868;SDS011;7004;48.206;16.402;2023-12-07T12:29:25;10.73;;;8.80;;
13868;SDS011;7004;48.206;16.402;2023-12-07T12:31:52;12.53;;;9.30;;
13868;SDS011;7004;48.206;16.402;2023-12-07T12:34:32;10.87;;;8.63;;
13868;SDS011;7004;48.206;16.402;2023-12-07T12:37:09;12.43;;;10.00;;
13868;SDS011;7004;48.206;16.402;2023-12-07T12:39:37;12.47;;;8.63;;
13868;SDS011;7004;48.206;16.402;2023-12-07T12:42:12;11.53;;;8.50;;
13868;SDS011;7004;48.206;16.402;2023-12-07T12:44:38;11.53;;;8.93;;
13868;SDS011;7004;48.206;16.402;2023-12-07T12:47:05;12.23;;;8.73;;
13868;SDS011;7004;48.206;16.402;2023-12-07T12:49:37;12.63;;;8.57;;
13868;SDS011;7004;48.206;16.402;2023-12-07T12:52:14;11.83;;;9.20;;
13868;SDS011;7004;48.206;16.402;2023-12-07T12:54:44;13.47;;;9.43;;
13868;SDS011;7004;48.206;16.402;2023-12-07T12:57:14;15.10;;;8.90;;
13868;SDS011;7004;48.206;16.402;2023-12-07T12:59:56;13.27;;;10.03;;
13868;SDS011;7004;48.206;16.402;2023-12-07T13:02:26;12.87;;;10.10;;
13868;SDS011;7004;48.206;16.402;2023-12-07T13:04:55;13.27;;;9.53;;
13868;SDS011;7004;48.206;16.402;2023-12-07T13:07:24;12.67;;;9.30;;
13868;SDS011;7004;48.206;16.402;2023-12-07T13:10:15;12.23;;;9.47;;
13868;SDS011;7004;48.206;16.402;2023-12-07T13:12:42;14.00;;;9.87;;
13868;SDS011;7004;48.206;16.402;2023-12-07T13:15:11;13.00;;;9.13;;
13868;SDS011;7004;48.206;16.402;2023-12-07T13:17:53;13.03;;;9.33;;
13868;SDS011;7004;48.206;16.402;2023-12-07T13:20:21;13.50;;;9.67;;
13868;SDS011;7004;48.206;16.402;2023-12-07T13:23:04;13.27;;;9.77;;
13868;SDS011;7004;48.206;16.402;2023-12-07T13:25:44;19.10;;;12.57;;
13868;SDS011;7004;48.206;16.402;2023-12-07T13:28:10;21.10;;;12.67;;
13868;SDS011;7004;48.206;16.402;2023-12-07T13:30:36;18.20;;;12.13;;
13868;SDS011;7004;48.206;16.402;2023-12-07T13:33:05;15.90;;;11.30;;
13868;SDS011;7004;48.206;16.402;2023-12-07T13:35:37;14.87;;;10.63;;
13868;SDS011;7004;48.206;16.402;2023-12-07T13:38:03;16.60;;;11.13;;
13868;SDS011;7004;48.206;16.402;2023-12-07T13:40:32;17.17;;;11.13;;
13868;SDS011;7004;48.206;16.402;2023-12-07T13:42:58;14.63;;;10.30;;
13868;SDS011;7004;48.206;16.402;2023-12-07T13:45:24;17.80;;;10.90;;
13868;SDS011;7004;48.206;16.402;2023-12-07T13:47:51;13.53;;;9.93;;
13868;SDS011;7004;48.206;16.402;2023-12-07T13:50:29;14.30;;;9.80;;
13868;SDS011;7004;48.206;16.402;2023-12-07T13:52:57;14.80;;;10.40;;
13868;SDS011;7004;48.206;16.402;2023-12-07T13:55:27;15.40;;;10.43;;
13868;SDS011;7004;48.206;16.402;2023-12-07T13:57:57;14.90;;;9.67;;
13868;SDS011;7004;48.206;16.402;2023-12-07T14:00:24;17.73;;;10.40;;
13868;SDS011;7004;48.206;16.402;2023-12-07T14:02:50;15.97;;;10.90;;
13868;SDS011;7004;48.206;16.402;2023-12-07T14:05:16;13.63;;;9.27;;
13868;SDS011;7004;48.206;16.402;2023-12-07T14:07:44;13.40;;;9.77;;
13868;SDS011;7004;48.206;16.402;2023-12-07T14:10:11;13.67;;;9.60;;
13868;SDS011;7004;48.206;16.402;2023-12-07T14:12:37;12.27;;;9.13;;
13868;SDS011;7004;48.206;16.402;2023-12-07T14:15:03;13.63;;;9.90;;
13868;SDS011;7004;48.206;16.402;2023-12-07T14:17:30;13.37;;;9.57;;
13868;SDS011;7004;48.206;16.402;2023-12-07T14:20:06;13.13;;;10.00;;
13868;SDS011;7004;48.206;16.402;2023-12-07T14:22:37;14.70;;;10.57;;
13868;SDS011;7004;48.206;16.402;2023-12-07T14:25:03;15.37;;;10.93;;
13868;SDS011;7004;48.206;16.402;2023-12-07T14:27:30;14.00;;;9.90;;
13868;SDS011;7004;48.206;16.402;2023-12-07T14:29:59;14.20;;;10.57;;
13868;SDS011;7004;48.206;16.402;2023-12-07T14:32:28;12.80;;;9.87;;
13868;SDS011;7004;48.206;16.402;2023-12-07T14:34:55;11.27;;;7.77;;
13868;SDS011;7004;48.206;16.402;2023-12-07T14:37:24;14.97;;;10.40;;